Hlavní strana
METAR-TAF:

METAR-TAF

Letiště :

Seattle / Tacoma, Washington, Spojené státy americké

Seattle-Tacoma International Airport

zeměpisná šířka: 47-26-41N, zeměpisná délka: 122-18-49W, výška: 130 m

Aktuální stav počasí

Zpráva byla vytvořena před 29 minutami, v 18:53 UTC
Severní vítr 8 kt
Teplota 17°C
Vlhkost vzduchu 42%
Tlak 1027 hPa
Viditelnost: 16.1 km
Skoro jasno ve výšce 25000 ft

METAR: KSEA 231853Z 36008KT 10SM FEW250 17/04 A3032 RMK AO2 SLP275 T01720039

Čas: 12:22 (19:22 UTC)

Předpověď počasí

Zpráva byla vytvořena před 2 hodinami a 2 minutami, v 17:20 UTC
Předpověď platná od 23 v 18 UTC do 24 v 24 UTC
Severní vítr 10 kt
Viditelnost: 10 km
Jasno
Od 24 v 0500 UTC
Severovýchodní vítr 8 kt
Viditelnost: 10 km
Jasno
Od 24 v 1800 UTC
Severní vítr 10 kt
Viditelnost: 10 km
Jasno

TAF: KSEA 231720Z 2318/2424 36010KT P6SM SKC FM240500 05008KT P6SM SKC FM241800 36010KT P6SM SKC

Stav a předpovědi počasí z více než 4 000 letišť (zprávy METAR a TAF).

Červené a žluté tečky na mapě představují dostupné meteorologické stanice.

Když kurzor umístíte na tečku, zobrazí se název stanice.

Pak kliknutím zobrazíte stav a předpověď počasí.

Chcete-li změnit mapu, kliknutím na zelené tlačítko se znaménkem +mapu přiblížíte, kliknutím na zelené tlačítko se znaménkem – mapu oddálíte a kliknutím na zelené šipky přejdete na sousední mapy.


METAR-TAF: